East Beckley, West Virginia
Current Conditions -  °F | °C
As of 5:14 PM on Tuesday 21 Oct 2014 (Local Time) from KBKW Reporting Station
Light Rain Light Rain  
Wind Chill: 39°   Ceiling: 1500
Heat Index: 45°   Visibility: 10mi
Dew Point: 39°   Wind: 14mph
Humidity: 80%   Direction: 320°NW
Pressure: 29.98"   Gusts: 24mph
Location:  37.8169°N, 81.243°W
Report Text: KBKW 212114Z AUTO 32012G21KT 10SM -RA BKN015 OVC023 07/04 A2998 RMK AO2 RAB07 P0000 T00720039 TSNO
Loading
Personal Weather Stations






























Interactive Weather Map
Tropical Storm Tracking
New forecast layout! Learn more

10-Day Weather Forecast

Advertisements
Track Severe Weather on mobile